sensor_id;sensor_type;location;lat;lon;timestamp;temperature;humidity
17994;DHT22;9122;48.406;9.984;2023-06-26T00:00:03;22.30;66.30
17994;DHT22;9122;48.406;9.984;2023-06-26T00:02:49;22.30;65.80
17994;DHT22;9122;48.406;9.984;2023-06-26T00:05:33;22.20;66.00
17994;DHT22;9122;48.406;9.984;2023-06-26T00:08:18;22.20;65.90
17994;DHT22;9122;48.406;9.984;2023-06-26T00:11:02;22.20;66.00
17994;DHT22;9122;48.406;9.984;2023-06-26T00:13:47;22.10;66.20
17994;DHT22;9122;48.406;9.984;2023-06-26T00:16:32;22.00;66.30
17994;DHT22;9122;48.406;9.984;2023-06-26T00:19:16;22.00;66.70
17994;DHT22;9122;48.406;9.984;2023-06-26T00:22:00;22.00;66.90
17994;DHT22;9122;48.406;9.984;2023-06-26T00:24:44;21.90;67.10
17994;DHT22;9122;48.406;9.984;2023-06-26T00:27:28;21.90;67.30
17994;DHT22;9122;48.406;9.984;2023-06-26T00:30:13;21.80;68.40
17994;DHT22;9122;48.406;9.984;2023-06-26T00:32:57;21.80;68.10
17994;DHT22;9122;48.406;9.984;2023-06-26T00:35:42;21.70;68.40
17994;DHT22;9122;48.406;9.984;2023-06-26T00:38:26;21.60;68.40
17994;DHT22;9122;48.406;9.984;2023-06-26T00:41:10;21.60;68.50
17994;DHT22;9122;48.406;9.984;2023-06-26T00:43:56;21.60;68.60
17994;DHT22;9122;48.406;9.984;2023-06-26T00:46:41;21.50;68.80
17994;DHT22;9122;48.406;9.984;2023-06-26T00:49:26;21.50;69.20
17994;DHT22;9122;48.406;9.984;2023-06-26T00:52:11;21.50;69.40
17994;DHT22;9122;48.406;9.984;2023-06-26T00:54:55;21.40;69.50
17994;DHT22;9122;48.406;9.984;2023-06-26T00:57:40;21.30;69.50
17994;DHT22;9122;48.406;9.984;2023-06-26T01:00:24;21.30;69.60
17994;DHT22;9122;48.406;9.984;2023-06-26T01:03:09;21.30;69.80
17994;DHT22;9122;48.406;9.984;2023-06-26T01:05:55;21.20;69.90
17994;DHT22;9122;48.406;9.984;2023-06-26T01:08:41;21.20;70.10
17994;DHT22;9122;48.406;9.984;2023-06-26T01:11:26;21.20;70.20
17994;DHT22;9122;48.406;9.984;2023-06-26T01:14:11;21.10;70.30
17994;DHT22;9122;48.406;9.984;2023-06-26T01:16:55;21.10;70.80
17994;DHT22;9122;48.406;9.984;2023-06-26T01:19:42;21.00;71.10
17994;DHT22;9122;48.406;9.984;2023-06-26T01:22:51;21.00;71.30
17994;DHT22;9122;48.406;9.984;2023-06-26T01:28:45;20.90;71.60
17994;DHT22;9122;48.406;9.984;2023-06-26T01:31:30;20.90;71.90
17994;DHT22;9122;48.406;9.984;2023-06-26T01:34:18;20.90;72.10
17994;DHT22;9122;48.406;9.984;2023-06-26T01:37:02;20.80;72.40
17994;DHT22;9122;48.406;9.984;2023-06-26T01:39:46;20.80;72.50
17994;DHT22;9122;48.406;9.984;2023-06-26T01:42:34;20.80;72.40
17994;DHT22;9122;48.406;9.984;2023-06-26T01:45:27;20.80;72.60
17994;DHT22;9122;48.406;9.984;2023-06-26T01:48:13;20.70;72.80
17994;DHT22;9122;48.406;9.984;2023-06-26T01:51:00;20.70;73.00
17994;DHT22;9122;48.406;9.984;2023-06-26T01:53:46;20.70;73.10
17994;DHT22;9122;48.406;9.984;2023-06-26T01:56:38;20.70;73.30
17994;DHT22;9122;48.406;9.984;2023-06-26T01:59:24;20.60;73.30
17994;DHT22;9122;48.406;9.984;2023-06-26T02:02:10;20.60;73.40
17994;DHT22;9122;48.406;9.984;2023-06-26T02:04:55;20.60;73.50
17994;DHT22;9122;48.406;9.984;2023-06-26T02:07:40;20.50;73.50
17994;DHT22;9122;48.406;9.984;2023-06-26T02:10:24;20.50;73.70
17994;DHT22;9122;48.406;9.984;2023-06-26T02:13:08;20.50;73.80
17994;DHT22;9122;48.406;9.984;2023-06-26T02:15:53;20.50;73.70
17994;DHT22;9122;48.406;9.984;2023-06-26T02:18:37;20.40;73.70
17994;DHT22;9122;48.406;9.984;2023-06-26T02:21:21;20.40;73.90
17994;DHT22;9122;48.406;9.984;2023-06-26T02:24:06;20.30;74.10
17994;DHT22;9122;48.406;9.984;2023-06-26T02:26:50;20.30;74.20
17994;DHT22;9122;48.406;9.984;2023-06-26T02:29:35;20.30;74.30
17994;DHT22;9122;48.406;9.984;2023-06-26T02:32:19;20.30;75.10
17994;DHT22;9122;48.406;9.984;2023-06-26T02:35:04;20.20;74.80
17994;DHT22;9122;48.406;9.984;2023-06-26T02:37:48;20.10;74.90
17994;DHT22;9122;48.406;9.984;2023-06-26T02:40:32;20.10;74.90
17994;DHT22;9122;48.406;9.984;2023-06-26T02:43:17;20.10;75.00
17994;DHT22;9122;48.406;9.984;2023-06-26T02:46:01;20.00;75.40
17994;DHT22;9122;48.406;9.984;2023-06-26T02:48:52;20.00;75.70
17994;DHT22;9122;48.406;9.984;2023-06-26T02:51:37;19.90;76.00
17994;DHT22;9122;48.406;9.984;2023-06-26T02:54:21;19.80;76.10
17994;DHT22;9122;48.406;9.984;2023-06-26T02:57:05;19.90;76.30
17994;DHT22;9122;48.406;9.984;2023-06-26T02:59:50;19.80;76.40
17994;DHT22;9122;48.406;9.984;2023-06-26T03:02:34;19.80;76.60
17994;DHT22;9122;48.406;9.984;2023-06-26T03:05:18;19.80;76.60
17994;DHT22;9122;48.406;9.984;2023-06-26T03:08:03;19.80;76.70
17994;DHT22;9122;48.406;9.984;2023-06-26T03:10:47;19.70;76.90
17994;DHT22;9122;48.406;9.984;2023-06-26T03:13:35;19.70;77.00
17994;DHT22;9122;48.406;9.984;2023-06-26T03:16:19;19.70;77.20
17994;DHT22;9122;48.406;9.984;2023-06-26T03:19:04;19.70;77.30
17994;DHT22;9122;48.406;9.984;2023-06-26T03:21:48;19.60;77.40
17994;DHT22;9122;48.406;9.984;2023-06-26T03:24:32;19.60;77.70
17994;DHT22;9122;48.406;9.984;2023-06-26T03:27:17;19.60;77.80
17994;DHT22;9122;48.406;9.984;2023-06-26T03:30:01;19.50;77.80
17994;DHT22;9122;48.406;9.984;2023-06-26T03:32:46;19.50;78.00
17994;DHT22;9122;48.406;9.984;2023-06-26T03:35:31;19.50;78.20
17994;DHT22;9122;48.406;9.984;2023-06-26T03:38:15;19.40;78.40
17994;DHT22;9122;48.406;9.984;2023-06-26T03:41:00;19.30;78.60
17994;DHT22;9122;48.406;9.984;2023-06-26T03:43:44;19.40;78.80
17994;DHT22;9122;48.406;9.984;2023-06-26T03:46:29;19.30;78.90
17994;DHT22;9122;48.406;9.984;2023-06-26T03:49:13;19.30;79.00
17994;DHT22;9122;48.406;9.984;2023-06-26T03:51:58;19.20;79.10
17994;DHT22;9122;48.406;9.984;2023-06-26T03:54:42;19.20;79.20
17994;DHT22;9122;48.406;9.984;2023-06-26T03:57:27;19.20;79.40
17994;DHT22;9122;48.406;9.984;2023-06-26T04:00:12;19.20;79.50
17994;DHT22;9122;48.406;9.984;2023-06-26T04:02:58;19.10;79.70
17994;DHT22;9122;48.406;9.984;2023-06-26T04:05:42;19.10;79.80
17994;DHT22;9122;48.406;9.984;2023-06-26T04:08:27;19.00;80.00
17994;DHT22;9122;48.406;9.984;2023-06-26T04:11:11;19.00;80.20
17994;DHT22;9122;48.406;9.984;2023-06-26T04:13:56;19.00;80.40
17994;DHT22;9122;48.406;9.984;2023-06-26T04:16:40;18.90;80.50
17994;DHT22;9122;48.406;9.984;2023-06-26T04:19:25;18.90;80.70
17994;DHT22;9122;48.406;9.984;2023-06-26T04:22:09;18.90;80.80
17994;DHT22;9122;48.406;9.984;2023-06-26T04:24:54;18.90;80.90
17994;DHT22;9122;48.406;9.984;2023-06-26T04:27:39;18.90;81.00
17994;DHT22;9122;48.406;9.984;2023-06-26T04:30:23;18.90;81.00
17994;DHT22;9122;48.406;9.984;2023-06-26T04:33:08;18.80;80.80
17994;DHT22;9122;48.406;9.984;2023-06-26T04:35:55;18.90;81.10
17994;DHT22;9122;48.406;9.984;2023-06-26T04:38:40;18.80;81.10
17994;DHT22;9122;48.406;9.984;2023-06-26T04:41:25;18.80;81.40
17994;DHT22;9122;48.406;9.984;2023-06-26T04:44:09;18.80;81.50
17994;DHT22;9122;48.406;9.984;2023-06-26T04:46:53;18.80;81.50
17994;DHT22;9122;48.406;9.984;2023-06-26T04:49:38;18.80;81.50
17994;DHT22;9122;48.406;9.984;2023-06-26T04:52:23;18.80;81.50
17994;DHT22;9122;48.406;9.984;2023-06-26T04:55:07;18.80;81.70
17994;DHT22;9122;48.406;9.984;2023-06-26T04:57:52;18.80;81.70
17994;DHT22;9122;48.406;9.984;2023-06-26T05:00:36;18.80;82.00
17994;DHT22;9122;48.406;9.984;2023-06-26T05:03:21;18.80;82.10
17994;DHT22;9122;48.406;9.984;2023-06-26T05:06:06;18.90;82.00
17994;DHT22;9122;48.406;9.984;2023-06-26T05:08:50;18.90;82.00
17994;DHT22;9122;48.406;9.984;2023-06-26T05:11:34;18.90;81.80
17994;DHT22;9122;48.406;9.984;2023-06-26T05:14:18;18.90;81.70
17994;DHT22;9122;48.406;9.984;2023-06-26T05:17:03;18.90;81.70
17994;DHT22;9122;48.406;9.984;2023-06-26T05:19:47;18.90;81.70
17994;DHT22;9122;48.406;9.984;2023-06-26T05:22:33;19.00;81.80
17994;DHT22;9122;48.406;9.984;2023-06-26T05:25:19;19.00;81.70
17994;DHT22;9122;48.406;9.984;2023-06-26T05:28:05;19.10;81.70
17994;DHT22;9122;48.406;9.984;2023-06-26T05:30:51;19.10;81.60
17994;DHT22;9122;48.406;9.984;2023-06-26T05:33:35;19.20;81.60
17994;DHT22;9122;48.406;9.984;2023-06-26T05:36:22;19.20;81.40
17994;DHT22;9122;48.406;9.984;2023-06-26T05:39:08;19.30;81.40
17994;DHT22;9122;48.406;9.984;2023-06-26T05:41:52;19.30;82.00
17994;DHT22;9122;48.406;9.984;2023-06-26T05:44:37;19.40;81.20
17994;DHT22;9122;48.406;9.984;2023-06-26T05:47:21;19.50;81.20
17994;DHT22;9122;48.406;9.984;2023-06-26T05:50:07;19.50;81.10
17994;DHT22;9122;48.406;9.984;2023-06-26T05:52:52;19.60;81.00
17994;DHT22;9122;48.406;9.984;2023-06-26T05:55:36;19.70;80.20
17994;DHT22;9122;48.406;9.984;2023-06-26T05:58:21;19.80;80.70
17994;DHT22;9122;48.406;9.984;2023-06-26T06:01:06;19.80;80.60
17994;DHT22;9122;48.406;9.984;2023-06-26T06:03:50;19.90;80.40
17994;DHT22;9122;48.406;9.984;2023-06-26T06:06:35;20.00;80.40
17994;DHT22;9122;48.406;9.984;2023-06-26T06:09:19;20.10;80.40
17994;DHT22;9122;48.406;9.984;2023-06-26T06:12:07;20.20;80.40
17994;DHT22;9122;48.406;9.984;2023-06-26T06:14:52;20.30;80.50
17994;DHT22;9122;48.406;9.984;2023-06-26T06:17:36;20.40;79.20
17994;DHT22;9122;48.406;9.984;2023-06-26T06:20:21;20.40;79.00
17994;DHT22;9122;48.406;9.984;2023-06-26T06:23:06;20.60;79.20
17994;DHT22;9122;48.406;9.984;2023-06-26T06:25:50;20.70;78.90
17994;DHT22;9122;48.406;9.984;2023-06-26T06:28:35;20.80;78.80
17994;DHT22;9122;48.406;9.984;2023-06-26T06:31:20;20.90;78.70
17994;DHT22;9122;48.406;9.984;2023-06-26T06:34:04;21.00;78.50
17994;DHT22;9122;48.406;9.984;2023-06-26T06:36:48;21.10;78.50
17994;DHT22;9122;48.406;9.984;2023-06-26T06:39:34;21.20;78.20
17994;DHT22;9122;48.406;9.984;2023-06-26T06:42:18;21.30;78.10
17994;DHT22;9122;48.406;9.984;2023-06-26T06:45:03;21.30;77.90
17994;DHT22;9122;48.406;9.984;2023-06-26T06:47:47;21.50;77.80
17994;DHT22;9122;48.406;9.984;2023-06-26T06:50:32;21.60;77.50
17994;DHT22;9122;48.406;9.984;2023-06-26T06:53:18;21.70;77.50
17994;DHT22;9122;48.406;9.984;2023-06-26T06:56:04;21.80;77.40
17994;DHT22;9122;48.406;9.984;2023-06-26T06:58:49;21.90;77.20
17994;DHT22;9122;48.406;9.984;2023-06-26T07:01:33;22.00;76.90
17994;DHT22;9122;48.406;9.984;2023-06-26T07:04:17;22.10;76.60
17994;DHT22;9122;48.406;9.984;2023-06-26T07:07:02;22.20;76.50
17994;DHT22;9122;48.406;9.984;2023-06-26T07:09:47;22.30;76.10
17994;DHT22;9122;48.406;9.984;2023-06-26T07:12:31;22.40;75.60
17994;DHT22;9122;48.406;9.984;2023-06-26T07:15:17;22.60;75.80
17994;DHT22;9122;48.406;9.984;2023-06-26T07:18:01;22.70;75.60
17994;DHT22;9122;48.406;9.984;2023-06-26T07:20:46;22.80;75.40
17994;DHT22;9122;48.406;9.984;2023-06-26T07:23:30;22.90;74.90
17994;DHT22;9122;48.406;9.984;2023-06-26T07:26:14;23.00;74.60
17994;DHT22;9122;48.406;9.984;2023-06-26T07:29:00;23.10;74.40
17994;DHT22;9122;48.406;9.984;2023-06-26T07:31:44;23.30;73.90
17994;DHT22;9122;48.406;9.984;2023-06-26T07:34:29;23.30;73.30
17994;DHT22;9122;48.406;9.984;2023-06-26T07:37:13;23.50;74.00
17994;DHT22;9122;48.406;9.984;2023-06-26T07:39:58;23.60;72.70
17994;DHT22;9122;48.406;9.984;2023-06-26T07:42:42;23.70;72.10
17994;DHT22;9122;48.406;9.984;2023-06-26T07:45:26;23.80;72.00
17994;DHT22;9122;48.406;9.984;2023-06-26T07:48:10;23.90;72.20
17994;DHT22;9122;48.406;9.984;2023-06-26T07:50:54;24.00;72.10
17994;DHT22;9122;48.406;9.984;2023-06-26T07:53:39;24.10;71.50
17994;DHT22;9122;48.406;9.984;2023-06-26T07:56:23;24.20;70.90
17994;DHT22;9122;48.406;9.984;2023-06-26T07:59:08;24.40;70.60
17994;DHT22;9122;48.406;9.984;2023-06-26T08:01:53;24.40;70.20
17994;DHT22;9122;48.406;9.984;2023-06-26T08:04:37;24.60;69.20
17994;DHT22;9122;48.406;9.984;2023-06-26T08:07:21;24.70;69.00
17994;DHT22;9122;48.406;9.984;2023-06-26T08:10:06;24.80;68.90
17994;DHT22;9122;48.406;9.984;2023-06-26T08:12:50;24.90;68.60
17994;DHT22;9122;48.406;9.984;2023-06-26T08:15:35;25.00;68.00
17994;DHT22;9122;48.406;9.984;2023-06-26T08:18:19;25.10;67.90
17994;DHT22;9122;48.406;9.984;2023-06-26T08:21:04;25.20;67.80
17994;DHT22;9122;48.406;9.984;2023-06-26T08:23:48;25.30;67.80
17994;DHT22;9122;48.406;9.984;2023-06-26T08:26:33;25.40;67.10
17994;DHT22;9122;48.406;9.984;2023-06-26T08:29:17;25.50;67.20
17994;DHT22;9122;48.406;9.984;2023-06-26T08:32:02;25.60;67.20
17994;DHT22;9122;48.406;9.984;2023-06-26T08:34:47;25.70;66.70
17994;DHT22;9122;48.406;9.984;2023-06-26T08:37:31;25.80;66.60
17994;DHT22;9122;48.406;9.984;2023-06-26T08:40:17;25.90;66.40
17994;DHT22;9122;48.406;9.984;2023-06-26T08:43:04;26.00;66.10
17994;DHT22;9122;48.406;9.984;2023-06-26T08:45:49;26.10;65.90
17994;DHT22;9122;48.406;9.984;2023-06-26T08:48:37;26.20;65.40
17994;DHT22;9122;48.406;9.984;2023-06-26T08:51:28;26.30;65.10
17994;DHT22;9122;48.406;9.984;2023-06-26T08:54:15;26.40;65.30
17994;DHT22;9122;48.406;9.984;2023-06-26T08:57:01;26.60;64.90
17994;DHT22;9122;48.406;9.984;2023-06-26T08:59:47;26.70;65.50
17994;DHT22;9122;48.406;9.984;2023-06-26T09:02:32;26.70;64.50
17994;DHT22;9122;48.406;9.984;2023-06-26T09:05:16;26.80;63.90
17994;DHT22;9122;48.406;9.984;2023-06-26T09:08:01;27.00;63.30
17994;DHT22;9122;48.406;9.984;2023-06-26T09:10:45;27.10;63.50
17994;DHT22;9122;48.406;9.984;2023-06-26T09:13:33;27.20;62.30
17994;DHT22;9122;48.406;9.984;2023-06-26T09:16:24;27.30;61.10
17994;DHT22;9122;48.406;9.984;2023-06-26T09:19:13;27.40;61.40
17994;DHT22;9122;48.406;9.984;2023-06-26T09:21:57;27.40;61.50
17994;DHT22;9122;48.406;9.984;2023-06-26T09:24:43;27.60;61.30
17994;DHT22;9122;48.406;9.984;2023-06-26T09:27:28;27.60;59.20
17994;DHT22;9122;48.406;9.984;2023-06-26T09:30:17;27.70;57.10
17994;DHT22;9122;48.406;9.984;2023-06-26T09:33:15;27.80;56.40
17994;DHT22;9122;48.406;9.984;2023-06-26T09:35:59;27.90;56.50
17994;DHT22;9122;48.406;9.984;2023-06-26T09:38:43;28.00;55.60
17994;DHT22;9122;48.406;9.984;2023-06-26T09:41:29;28.10;55.50
17994;DHT22;9122;48.406;9.984;2023-06-26T09:44:15;28.20;54.40
17994;DHT22;9122;48.406;9.984;2023-06-26T09:46:59;28.30;54.40
17994;DHT22;9122;48.406;9.984;2023-06-26T09:49:46;28.40;55.00
17994;DHT22;9122;48.406;9.984;2023-06-26T09:52:31;28.50;53.70
17994;DHT22;9122;48.406;9.984;2023-06-26T09:55:16;28.60;53.60
17994;DHT22;9122;48.406;9.984;2023-06-26T09:58:01;28.70;53.40
17994;DHT22;9122;48.406;9.984;2023-06-26T10:00:46;28.80;53.50
17994;DHT22;9122;48.406;9.984;2023-06-26T10:03:30;28.90;52.70
17994;DHT22;9122;48.406;9.984;2023-06-26T10:06:19;28.90;52.20
17994;DHT22;9122;48.406;9.984;2023-06-26T10:09:04;29.00;52.60
17994;DHT22;9122;48.406;9.984;2023-06-26T10:14:41;29.20;52.30
17994;DHT22;9122;48.406;9.984;2023-06-26T10:17:32;29.30;51.60
17994;DHT22;9122;48.406;9.984;2023-06-26T10:20:18;29.40;51.00
17994;DHT22;9122;48.406;9.984;2023-06-26T10:23:03;29.50;51.10
17994;DHT22;9122;48.406;9.984;2023-06-26T10:25:52;29.50;51.10
17994;DHT22;9122;48.406;9.984;2023-06-26T10:28:38;29.60;51.10
17994;DHT22;9122;48.406;9.984;2023-06-26T10:31:26;29.60;50.00
17994;DHT22;9122;48.406;9.984;2023-06-26T10:34:12;29.70;49.30
17994;DHT22;9122;48.406;9.984;2023-06-26T10:37:01;29.70;49.20
17994;DHT22;9122;48.406;9.984;2023-06-26T10:39:46;29.80;48.70
17994;DHT22;9122;48.406;9.984;2023-06-26T10:42:35;29.90;49.40
17994;DHT22;9122;48.406;9.984;2023-06-26T10:45:20;29.90;49.30
17994;DHT22;9122;48.406;9.984;2023-06-26T10:48:05;29.90;49.90
17994;DHT22;9122;48.406;9.984;2023-06-26T10:50:49;29.90;51.10
17994;DHT22;9122;48.406;9.984;2023-06-26T10:53:34;30.00;50.40
17994;DHT22;9122;48.406;9.984;2023-06-26T10:56:19;30.10;48.90
17994;DHT22;9122;48.406;9.984;2023-06-26T10:59:20;30.10;48.50
17994;DHT22;9122;48.406;9.984;2023-06-26T11:02:05;30.30;49.30
17994;DHT22;9122;48.406;9.984;2023-06-26T11:04:52;30.30;47.80
17994;DHT22;9122;48.406;9.984;2023-06-26T11:10:49;30.40;48.30
17994;DHT22;9122;48.406;9.984;2023-06-26T11:13:37;30.50;47.30
17994;DHT22;9122;48.406;9.984;2023-06-26T11:16:26;30.60;47.80
17994;DHT22;9122;48.406;9.984;2023-06-26T11:19:14;30.60;47.00
17994;DHT22;9122;48.406;9.984;2023-06-26T11:22:02;30.70;47.10
17994;DHT22;9122;48.406;9.984;2023-06-26T11:24:53;30.70;46.90
17994;DHT22;9122;48.406;9.984;2023-06-26T11:27:41;30.80;46.30
17994;DHT22;9122;48.406;9.984;2023-06-26T11:30:37;30.90;46.40
17994;DHT22;9122;48.406;9.984;2023-06-26T11:36:47;31.00;44.70
17994;DHT22;9122;48.406;9.984;2023-06-26T11:43:36;31.00;44.90
17994;DHT22;9122;48.406;9.984;2023-06-26T11:46:22;31.10;44.00
17994;DHT22;9122;48.406;9.984;2023-06-26T11:51:55;31.10;43.30
17994;DHT22;9122;48.406;9.984;2023-06-26T11:54:42;31.10;44.00
17994;DHT22;9122;48.406;9.984;2023-06-26T11:57:27;31.20;44.30
17994;DHT22;9122;48.406;9.984;2023-06-26T12:00:15;31.30;44.50
17994;DHT22;9122;48.406;9.984;2023-06-26T12:03:01;31.30;44.10
17994;DHT22;9122;48.406;9.984;2023-06-26T12:05:47;31.30;44.80
17994;DHT22;9122;48.406;9.984;2023-06-26T12:08:32;31.40;43.80
17994;DHT22;9122;48.406;9.984;2023-06-26T12:11:17;31.50;43.20
17994;DHT22;9122;48.406;9.984;2023-06-26T12:14:02;31.40;44.60
17994;DHT22;9122;48.406;9.984;2023-06-26T12:16:47;31.50;43.50
17994;DHT22;9122;48.406;9.984;2023-06-26T12:19:31;31.50;43.80
17994;DHT22;9122;48.406;9.984;2023-06-26T12:22:19;31.60;44.50
17994;DHT22;9122;48.406;9.984;2023-06-26T12:25:07;31.60;43.50
17994;DHT22;9122;48.406;9.984;2023-06-26T12:27:51;31.50;43.50
17994;DHT22;9122;48.406;9.984;2023-06-26T12:30:35;31.50;44.30
17994;DHT22;9122;48.406;9.984;2023-06-26T12:33:20;31.50;44.40
17994;DHT22;9122;48.406;9.984;2023-06-26T12:36:13;31.50;44.30
17994;DHT22;9122;48.406;9.984;2023-06-26T12:39:09;31.50;44.80
17994;DHT22;9122;48.406;9.984;2023-06-26T12:42:00;31.50;44.80
17994;DHT22;9122;48.406;9.984;2023-06-26T12:44:46;31.40;45.50
17994;DHT22;9122;48.406;9.984;2023-06-26T12:47:30;31.40;47.10
17994;DHT22;9122;48.406;9.984;2023-06-26T12:50:15;31.40;46.90
17994;DHT22;9122;48.406;9.984;2023-06-26T12:53:01;31.40;46.90
17994;DHT22;9122;48.406;9.984;2023-06-26T12:55:45;31.40;47.10
17994;DHT22;9122;48.406;9.984;2023-06-26T12:58:30;31.40;47.30
17994;DHT22;9122;48.406;9.984;2023-06-26T13:01:14;31.40;47.30
17994;DHT22;9122;48.406;9.984;2023-06-26T13:03:59;31.40;47.00
17994;DHT22;9122;48.406;9.984;2023-06-26T13:06:43;31.40;47.20
17994;DHT22;9122;48.406;9.984;2023-06-26T13:09:33;31.40;47.50
17994;DHT22;9122;48.406;9.984;2023-06-26T13:12:18;31.40;47.70
17994;DHT22;9122;48.406;9.984;2023-06-26T13:15:05;31.40;47.90
17994;DHT22;9122;48.406;9.984;2023-06-26T13:17:49;31.40;49.10
17994;DHT22;9122;48.406;9.984;2023-06-26T13:20:33;31.50;48.30
17994;DHT22;9122;48.406;9.984;2023-06-26T13:23:18;31.50;47.90
17994;DHT22;9122;48.406;9.984;2023-06-26T13:26:04;31.50;47.50
17994;DHT22;9122;48.406;9.984;2023-06-26T13:28:49;31.50;47.10
17994;DHT22;9122;48.406;9.984;2023-06-26T13:31:34;31.50;47.30
17994;DHT22;9122;48.406;9.984;2023-06-26T13:34:23;31.50;47.30
17994;DHT22;9122;48.406;9.984;2023-06-26T13:37:08;31.50;47.70
17994;DHT22;9122;48.406;9.984;2023-06-26T13:39:52;31.50;48.00
17994;DHT22;9122;48.406;9.984;2023-06-26T13:42:37;31.50;47.30
17994;DHT22;9122;48.406;9.984;2023-06-26T13:45:22;31.50;47.50
17994;DHT22;9122;48.406;9.984;2023-06-26T13:48:06;31.50;47.60
17994;DHT22;9122;48.406;9.984;2023-06-26T13:50:52;31.50;47.80
17994;DHT22;9122;48.406;9.984;2023-06-26T13:53:36;31.50;47.60
17994;DHT22;9122;48.406;9.984;2023-06-26T13:56:20;31.50;47.70
17994;DHT22;9122;48.406;9.984;2023-06-26T13:59:07;31.50;47.50
17994;DHT22;9122;48.406;9.984;2023-06-26T14:01:52;31.50;47.60
17994;DHT22;9122;48.406;9.984;2023-06-26T14:04:36;31.50;47.50
17994;DHT22;9122;48.406;9.984;2023-06-26T14:07:21;31.50;47.50
17994;DHT22;9122;48.406;9.984;2023-06-26T14:10:06;31.50;47.50
17994;DHT22;9122;48.406;9.984;2023-06-26T14:12:50;31.50;46.50
17994;DHT22;9122;48.406;9.984;2023-06-26T14:15:34;31.50;46.50
17994;DHT22;9122;48.406;9.984;2023-06-26T14:18:20;31.50;47.90
17994;DHT22;9122;48.406;9.984;2023-06-26T14:21:05;31.50;47.50
17994;DHT22;9122;48.406;9.984;2023-06-26T14:23:50;31.50;47.20
17994;DHT22;9122;48.406;9.984;2023-06-26T14:26:35;31.50;47.20
17994;DHT22;9122;48.406;9.984;2023-06-26T14:29:21;31.50;47.10
17994;DHT22;9122;48.406;9.984;2023-06-26T14:32:06;31.50;47.10
17994;DHT22;9122;48.406;9.984;2023-06-26T14:34:53;31.50;47.10
17994;DHT22;9122;48.406;9.984;2023-06-26T14:37:38;31.50;47.10
17994;DHT22;9122;48.406;9.984;2023-06-26T14:40:23;31.50;47.40
17994;DHT22;9122;48.406;9.984;2023-06-26T14:43:08;31.50;47.30
17994;DHT22;9122;48.406;9.984;2023-06-26T14:45:52;31.50;47.20
17994;DHT22;9122;48.406;9.984;2023-06-26T14:48:37;31.50;47.40
17994;DHT22;9122;48.406;9.984;2023-06-26T14:51:21;31.40;49.30
17994;DHT22;9122;48.406;9.984;2023-06-26T14:54:06;31.40;47.80
17994;DHT22;9122;48.406;9.984;2023-06-26T14:56:51;31.40;48.20
17994;DHT22;9122;48.406;9.984;2023-06-26T14:59:35;31.40;48.10
17994;DHT22;9122;48.406;9.984;2023-06-26T15:02:19;31.40;48.00
17994;DHT22;9122;48.406;9.984;2023-06-26T15:05:03;31.40;47.90
17994;DHT22;9122;48.406;9.984;2023-06-26T15:07:48;31.40;48.00
17994;DHT22;9122;48.406;9.984;2023-06-26T15:10:32;31.40;48.20
17994;DHT22;9122;48.406;9.984;2023-06-26T15:13:17;31.40;48.30
17994;DHT22;9122;48.406;9.984;2023-06-26T15:16:04;31.40;48.20
17994;DHT22;9122;48.406;9.984;2023-06-26T15:18:49;31.30;48.80
17994;DHT22;9122;48.406;9.984;2023-06-26T15:21:33;31.30;49.00
17994;DHT22;9122;48.406;9.984;2023-06-26T15:24:18;31.30;49.60
17994;DHT22;9122;48.406;9.984;2023-06-26T15:27:05;31.30;49.20
17994;DHT22;9122;48.406;9.984;2023-06-26T15:29:52;31.30;50.30
17994;DHT22;9122;48.406;9.984;2023-06-26T15:32:36;31.30;49.20
17994;DHT22;9122;48.406;9.984;2023-06-26T15:35:20;31.30;51.20
17994;DHT22;9122;48.406;9.984;2023-06-26T15:38:05;31.20;49.70
17994;DHT22;9122;48.406;9.984;2023-06-26T15:40:49;31.20;50.00
17994;DHT22;9122;48.406;9.984;2023-06-26T15:43:33;31.20;50.10
17994;DHT22;9122;48.406;9.984;2023-06-26T15:46:22;31.20;50.40
17994;DHT22;9122;48.406;9.984;2023-06-26T15:49:06;31.20;50.60
17994;DHT22;9122;48.406;9.984;2023-06-26T15:51:52;31.20;50.30
17994;DHT22;9122;48.406;9.984;2023-06-26T15:54:37;31.10;50.10
17994;DHT22;9122;48.406;9.984;2023-06-26T15:57:21;31.10;50.30
17994;DHT22;9122;48.406;9.984;2023-06-26T16:00:07;31.10;50.20
17994;DHT22;9122;48.406;9.984;2023-06-26T16:02:52;31.10;50.10
17994;DHT22;9122;48.406;9.984;2023-06-26T16:05:42;31.00;50.20
17994;DHT22;9122;48.406;9.984;2023-06-26T16:08:26;31.00;50.30
17994;DHT22;9122;48.406;9.984;2023-06-26T16:11:11;31.00;49.90
17994;DHT22;9122;48.406;9.984;2023-06-26T16:13:56;30.90;49.40
17994;DHT22;9122;48.406;9.984;2023-06-26T16:16:42;30.90;49.30
17994;DHT22;9122;48.406;9.984;2023-06-26T16:19:26;30.90;49.10
17994;DHT22;9122;48.406;9.984;2023-06-26T16:22:11;30.90;48.50
17994;DHT22;9122;48.406;9.984;2023-06-26T16:24:55;30.80;48.40
17994;DHT22;9122;48.406;9.984;2023-06-26T16:27:41;30.80;48.10
17994;DHT22;9122;48.406;9.984;2023-06-26T16:30:27;30.70;48.30
17994;DHT22;9122;48.406;9.984;2023-06-26T16:33:13;30.70;48.60
17994;DHT22;9122;48.406;9.984;2023-06-26T16:35:57;30.60;48.40
17994;DHT22;9122;48.406;9.984;2023-06-26T16:38:41;30.50;48.60
17994;DHT22;9122;48.406;9.984;2023-06-26T16:41:27;30.50;48.70
17994;DHT22;9122;48.406;9.984;2023-06-26T16:44:11;30.50;48.90
17994;DHT22;9122;48.406;9.984;2023-06-26T16:46:57;30.30;48.70
17994;DHT22;9122;48.406;9.984;2023-06-26T16:49:46;30.30;49.30
17994;DHT22;9122;48.406;9.984;2023-06-26T16:52:31;30.30;48.40
17994;DHT22;9122;48.406;9.984;2023-06-26T16:55:15;30.20;48.40
17994;DHT22;9122;48.406;9.984;2023-06-26T16:58:00;30.10;48.20
17994;DHT22;9122;48.406;9.984;2023-06-26T17:00:46;30.10;48.50
17994;DHT22;9122;48.406;9.984;2023-06-26T17:03:30;30.10;48.90
17994;DHT22;9122;48.406;9.984;2023-06-26T17:06:15;30.00;48.60
17994;DHT22;9122;48.406;9.984;2023-06-26T17:08:59;30.00;48.90
17994;DHT22;9122;48.406;9.984;2023-06-26T17:11:44;29.90;49.00
17994;DHT22;9122;48.406;9.984;2023-06-26T17:14:28;29.90;48.80
17994;DHT22;9122;48.406;9.984;2023-06-26T17:17:13;29.90;49.10
17994;DHT22;9122;48.406;9.984;2023-06-26T17:20:00;29.90;49.00
17994;DHT22;9122;48.406;9.984;2023-06-26T17:22:45;29.80;48.90
17994;DHT22;9122;48.406;9.984;2023-06-26T17:25:31;29.80;49.10
17994;DHT22;9122;48.406;9.984;2023-06-26T17:28:17;29.70;49.10
17994;DHT22;9122;48.406;9.984;2023-06-26T17:31:02;29.70;49.30
17994;DHT22;9122;48.406;9.984;2023-06-26T17:33:47;29.60;49.30
17994;DHT22;9122;48.406;9.984;2023-06-26T17:36:32;29.60;49.70
17994;DHT22;9122;48.406;9.984;2023-06-26T17:39:16;29.50;49.40
17994;DHT22;9122;48.406;9.984;2023-06-26T17:42:00;29.40;49.00
17994;DHT22;9122;48.406;9.984;2023-06-26T17:44:46;29.40;49.00
17994;DHT22;9122;48.406;9.984;2023-06-26T17:47:31;29.40;49.00
17994;DHT22;9122;48.406;9.984;2023-06-26T17:50:15;29.20;49.00
17994;DHT22;9122;48.406;9.984;2023-06-26T17:53:00;29.20;49.10
17994;DHT22;9122;48.406;9.984;2023-06-26T17:55:44;29.10;49.20
17994;DHT22;9122;48.406;9.984;2023-06-26T17:58:29;29.00;49.50